sensor_id;sensor_type;location;lat;lon;timestamp;pressure;altitude;pressure_sealevel;temperature;humidity
41573;BME280;27286;47.870;19.006;2024-02-21T00:01:21;100014.91;;;6.39;90.65
41573;BME280;27286;47.870;19.006;2024-02-21T00:03:47;99996.09;;;6.29;91.36
41573;BME280;27286;47.870;19.006;2024-02-21T00:06:12;99998.66;;;6.29;91.65
41573;BME280;27286;47.870;19.006;2024-02-21T00:08:38;100008.28;;;6.20;93.60
41573;BME280;27286;47.870;19.006;2024-02-21T00:11:03;100001.41;;;6.17;94.62
41573;BME280;27286;47.870;19.006;2024-02-21T00:13:29;100011.75;;;6.17;94.84
41573;BME280;27286;47.870;19.006;2024-02-21T00:15:55;100013.56;;;6.12;95.84
41573;BME280;27286;47.870;19.006;2024-02-21T00:18:20;100018.63;;;6.20;95.37
41573;BME280;27286;47.870;19.006;2024-02-21T00:20:45;100008.22;;;6.26;94.67
41573;BME280;27286;47.870;19.006;2024-02-21T00:23:11;100023.34;;;6.50;92.97
41573;BME280;27286;47.870;19.006;2024-02-21T00:25:37;100020.25;;;6.27;95.15
41573;BME280;27286;47.870;19.006;2024-02-21T00:28:02;100010.78;;;6.26;95.15
41573;BME280;27286;47.870;19.006;2024-02-21T00:30:28;100005.78;;;6.14;96.66
41573;BME280;27286;47.870;19.006;2024-02-21T00:32:53;100010.84;;;6.21;96.89
41573;BME280;27286;47.870;19.006;2024-02-21T00:35:19;100006.56;;;6.19;97.01
41573;BME280;27286;47.870;19.006;2024-02-21T00:37:44;100003.69;;;6.40;95.82
41573;BME280;27286;47.870;19.006;2024-02-21T00:40:10;100005.44;;;6.37;95.09
41573;BME280;27286;47.870;19.006;2024-02-21T00:42:36;99991.16;;;6.13;96.30
41573;BME280;27286;47.870;19.006;2024-02-21T00:45:01;99998.28;;;6.54;94.19
41573;BME280;27286;47.870;19.006;2024-02-21T00:47:26;99998.63;;;6.32;95.21
41573;BME280;27286;47.870;19.006;2024-02-21T00:49:52;99995.78;;;6.48;94.83
41573;BME280;27286;47.870;19.006;2024-02-21T00:52:17;99991.75;;;6.30;95.10
41573;BME280;27286;47.870;19.006;2024-02-21T00:54:43;99988.47;;;6.19;96.29
41573;BME280;27286;47.870;19.006;2024-02-21T00:57:08;99985.75;;;6.29;95.77
41573;BME280;27286;47.870;19.006;2024-02-21T00:59:34;99988.41;;;6.25;95.76
41573;BME280;27286;47.870;19.006;2024-02-21T01:01:59;99987.56;;;6.24;95.97
41573;BME280;27286;47.870;19.006;2024-02-21T01:04:24;99995.81;;;6.46;94.99
41573;BME280;27286;47.870;19.006;2024-02-21T01:06:50;99969.44;;;6.24;95.01
41573;BME280;27286;47.870;19.006;2024-02-21T01:09:15;99992.56;;;6.33;94.53
41573;BME280;27286;47.870;19.006;2024-02-21T01:11:41;99989.94;;;6.37;94.34
41573;BME280;27286;47.870;19.006;2024-02-21T01:14:06;99981.28;;;6.38;94.98
41573;BME280;27286;47.870;19.006;2024-02-21T01:16:31;99986.47;;;6.39;94.10
41573;BME280;27286;47.870;19.006;2024-02-21T01:18:57;99988.00;;;6.49;93.34
41573;BME280;27286;47.870;19.006;2024-02-21T01:21:22;99980.41;;;6.40;93.91
41573;BME280;27286;47.870;19.006;2024-02-21T01:23:48;99972.88;;;6.25;95.22
41573;BME280;27286;47.870;19.006;2024-02-21T01:26:13;99977.22;;;6.23;95.41
41573;BME280;27286;47.870;19.006;2024-02-21T01:28:41;99950.78;;;6.06;95.50
41573;BME280;27286;47.870;19.006;2024-02-21T01:31:06;99980.84;;;6.11;96.32
41573;BME280;27286;47.870;19.006;2024-02-21T01:33:32;99977.31;;;6.17;95.82
41573;BME280;27286;47.870;19.006;2024-02-21T01:36:03;99972.22;;;6.11;96.58
41573;BME280;27286;47.870;19.006;2024-02-21T01:38:29;99978.34;;;6.03;97.06
41573;BME280;27286;47.870;19.006;2024-02-21T01:40:55;99971.66;;;5.90;97.00
41573;BME280;27286;47.870;19.006;2024-02-21T01:43:20;99971.59;;;5.95;97.12
41573;BME280;27286;47.870;19.006;2024-02-21T01:45:51;99980.28;;;5.86;97.57
41573;BME280;27286;47.870;19.006;2024-02-21T01:48:18;99968.47;;;5.68;98.37
41573;BME280;27286;47.870;19.006;2024-02-21T01:50:47;99970.09;;;5.76;98.48
41573;BME280;27286;47.870;19.006;2024-02-21T01:53:20;99966.84;;;5.61;98.84
41573;BME280;27286;47.870;19.006;2024-02-21T01:55:46;99966.84;;;5.61;99.31
41573;BME280;27286;47.870;19.006;2024-02-21T01:58:15;99967.44;;;5.82;97.66
41573;BME280;27286;47.870;19.006;2024-02-21T02:00:45;99958.31;;;5.55;97.93
41573;BME280;27286;47.870;19.006;2024-02-21T02:03:12;99971.88;;;5.72;97.07
41573;BME280;27286;47.870;19.006;2024-02-21T02:05:48;99965.84;;;5.73;96.33
41573;BME280;27286;47.870;19.006;2024-02-21T02:08:17;99965.78;;;5.78;96.36
41573;BME280;27286;47.870;19.006;2024-02-21T02:10:44;99967.19;;;6.01;94.84
41573;BME280;27286;47.870;19.006;2024-02-21T02:13:10;99970.56;;;6.07;94.38
41573;BME280;27286;47.870;19.006;2024-02-21T02:15:46;99962.38;;;5.74;95.09
41573;BME280;27286;47.870;19.006;2024-02-21T02:18:14;99968.69;;;5.50;96.21
41573;BME280;27286;47.870;19.006;2024-02-21T02:20:40;99955.47;;;5.74;95.58
41573;BME280;27286;47.870;19.006;2024-02-21T02:23:30;99960.94;;;5.50;96.53
41573;BME280;27286;47.870;19.006;2024-02-21T02:25:59;99959.56;;;5.20;98.55
41573;BME280;27286;47.870;19.006;2024-02-21T02:28:26;99959.56;;;5.23;98.56
41573;BME280;27286;47.870;19.006;2024-02-21T02:30:52;99957.88;;;5.19;98.96
41573;BME280;27286;47.870;19.006;2024-02-21T02:33:18;99964.75;;;5.19;98.95
41573;BME280;27286;47.870;19.006;2024-02-21T02:35:43;99963.38;;;4.84;100.00
41573;BME280;27286;47.870;19.006;2024-02-21T02:38:09;99964.28;;;4.81;100.00
41573;BME280;27286;47.870;19.006;2024-02-21T02:40:38;99969.53;;;4.72;100.00
41573;BME280;27286;47.870;19.006;2024-02-21T02:43:03;99966.19;;;4.61;100.00
41573;BME280;27286;47.870;19.006;2024-02-21T02:45:29;99970.44;;;4.67;100.00
41573;BME280;27286;47.870;19.006;2024-02-21T02:47:55;99973.06;;;4.61;100.00
41573;BME280;27286;47.870;19.006;2024-02-21T02:50:22;99972.31;;;4.48;100.00
41573;BME280;27286;47.870;19.006;2024-02-21T02:52:48;99968.16;;;4.30;100.00
41573;BME280;27286;47.870;19.006;2024-02-21T02:55:13;99975.13;;;4.14;100.00
41573;BME280;27286;47.870;19.006;2024-02-21T02:57:39;99974.31;;;4.11;100.00
41573;BME280;27286;47.870;19.006;2024-02-21T03:00:07;99983.81;;;4.04;100.00
41573;BME280;27286;47.870;19.006;2024-02-21T03:02:33;99977.84;;;3.93;100.00
41573;BME280;27286;47.870;19.006;2024-02-21T03:04:58;99970.91;;;4.01;100.00
41573;BME280;27286;47.870;19.006;2024-02-21T03:07:25;99969.28;;;3.85;100.00
41573;BME280;27286;47.870;19.006;2024-02-21T03:09:50;99973.47;;;4.09;100.00
41573;BME280;27286;47.870;19.006;2024-02-21T03:12:16;99982.72;;;4.33;100.00
41573;BME280;27286;47.870;19.006;2024-02-21T03:14:52;99974.31;;;4.09;100.00
41573;BME280;27286;47.870;19.006;2024-02-21T03:17:17;99988.91;;;4.12;100.00
41573;BME280;27286;47.870;19.006;2024-02-21T03:19:43;99982.91;;;4.07;100.00
41573;BME280;27286;47.870;19.006;2024-02-21T03:22:08;99986.47;;;3.83;100.00
41573;BME280;27286;47.870;19.006;2024-02-21T03:24:33;99986.47;;;3.87;100.00
41573;BME280;27286;47.870;19.006;2024-02-21T03:26:59;99981.22;;;4.00;100.00
41573;BME280;27286;47.870;19.006;2024-02-21T03:29:25;99973.69;;;3.71;100.00
41573;BME280;27286;47.870;19.006;2024-02-21T03:31:50;99967.75;;;3.47;100.00
41573;BME280;27286;47.870;19.006;2024-02-21T03:34:16;99985.78;;;3.47;100.00
41573;BME280;27286;47.870;19.006;2024-02-21T03:36:41;99982.38;;;3.44;100.00
41573;BME280;27286;47.870;19.006;2024-02-21T03:39:06;99979.81;;;3.38;100.00
41573;BME280;27286;47.870;19.006;2024-02-21T03:41:34;99984.09;;;3.39;100.00
41573;BME280;27286;47.870;19.006;2024-02-21T03:44:00;99984.94;;;3.44;100.00
41573;BME280;27286;47.870;19.006;2024-02-21T03:46:25;99972.06;;;3.45;100.00
41573;BME280;27286;47.870;19.006;2024-02-21T03:48:51;99967.72;;;3.52;100.00
41573;BME280;27286;47.870;19.006;2024-02-21T03:51:16;99967.72;;;3.52;100.00
41573;BME280;27286;47.870;19.006;2024-02-21T03:53:42;99961.72;;;3.57;100.00
41573;BME280;27286;47.870;19.006;2024-02-21T03:56:07;99957.41;;;3.59;100.00
41573;BME280;27286;47.870;19.006;2024-02-21T03:58:33;99959.19;;;3.53;100.00
41573;BME280;27286;47.870;19.006;2024-02-21T04:01:02;99971.09;;;3.68;100.00
41573;BME280;27286;47.870;19.006;2024-02-21T04:03:28;99973.75;;;3.55;100.00
41573;BME280;27286;47.870;19.006;2024-02-21T04:05:53;99973.78;;;3.43;100.00
41573;BME280;27286;47.870;19.006;2024-02-21T04:08:19;99972.09;;;3.39;100.00
41573;BME280;27286;47.870;19.006;2024-02-21T04:10:44;99978.09;;;3.40;100.00
41573;BME280;27286;47.870;19.006;2024-02-21T04:13:10;99978.06;;;3.46;100.00
41573;BME280;27286;47.870;19.006;2024-02-21T04:15:35;99975.50;;;3.35;100.00
41573;BME280;27286;47.870;19.006;2024-02-21T04:18:01;99975.50;;;3.35;100.00
41573;BME280;27286;47.870;19.006;2024-02-21T04:20:28;99965.28;;;3.26;100.00
41573;BME280;27286;47.870;19.006;2024-02-21T04:22:54;99964.44;;;3.22;100.00
41573;BME280;27286;47.870;19.006;2024-02-21T04:25:20;99961.84;;;3.22;100.00
41573;BME280;27286;47.870;19.006;2024-02-21T04:27:45;99953.28;;;3.20;100.00
41573;BME280;27286;47.870;19.006;2024-02-21T04:30:11;99955.75;;;3.49;100.00
41573;BME280;27286;47.870;19.006;2024-02-21T04:32:37;99949.78;;;3.38;100.00
41573;BME280;27286;47.870;19.006;2024-02-21T04:35:03;99940.38;;;3.29;100.00
41573;BME280;27286;47.870;19.006;2024-02-21T04:37:28;99943.78;;;3.41;100.00
41573;BME280;27286;47.870;19.006;2024-02-21T04:39:54;99936.00;;;3.50;100.00
41573;BME280;27286;47.870;19.006;2024-02-21T04:42:19;99923.88;;;3.72;100.00
41573;BME280;27286;47.870;19.006;2024-02-21T04:44:45;99921.25;;;3.81;100.00
41573;BME280;27286;47.870;19.006;2024-02-21T04:47:10;99922.06;;;3.89;100.00
41573;BME280;27286;47.870;19.006;2024-02-21T04:49:36;99916.06;;;3.84;100.00
41573;BME280;27286;47.870;19.006;2024-02-21T04:52:01;99922.06;;;3.84;100.00
41573;BME280;27286;47.870;19.006;2024-02-21T04:54:27;99913.47;;;3.91;100.00
41573;BME280;27286;47.870;19.006;2024-02-21T04:56:52;99922.91;;;3.91;100.00
41573;BME280;27286;47.870;19.006;2024-02-21T04:59:18;99892.91;;;3.82;100.00
41573;BME280;27286;47.870;19.006;2024-02-21T05:01:43;99912.50;;;4.06;100.00
41573;BME280;27286;47.870;19.006;2024-02-21T05:04:09;99921.00;;;4.17;100.00
41573;BME280;27286;47.870;19.006;2024-02-21T05:06:38;99932.09;;;4.26;100.00
41573;BME280;27286;47.870;19.006;2024-02-21T05:09:04;99922.00;;;3.95;100.00
41573;BME280;27286;47.870;19.006;2024-02-21T05:11:30;99926.38;;;3.84;100.00
41573;BME280;27286;47.870;19.006;2024-02-21T05:13:55;99931.59;;;3.75;100.00
41573;BME280;27286;47.870;19.006;2024-02-21T05:16:21;99937.63;;;3.68;100.00
41573;BME280;27286;47.870;19.006;2024-02-21T05:18:46;99936.81;;;3.62;100.00
41573;BME280;27286;47.870;19.006;2024-02-21T05:21:12;99947.13;;;3.59;100.00
41573;BME280;27286;47.870;19.006;2024-02-21T05:23:38;99946.28;;;3.51;100.00
41573;BME280;27286;47.870;19.006;2024-02-21T05:26:05;99935.19;;;3.42;100.00
41573;BME280;27286;47.870;19.006;2024-02-21T05:28:30;99960.09;;;3.37;100.00
41573;BME280;27286;47.870;19.006;2024-02-21T05:30:56;99956.63;;;3.45;100.00
41573;BME280;27286;47.870;19.006;2024-02-21T05:33:21;99949.78;;;3.43;100.00
41573;BME280;27286;47.870;19.006;2024-02-21T05:35:47;99958.31;;;3.51;100.00
41573;BME280;27286;47.870;19.006;2024-02-21T05:38:16;99955.78;;;3.40;100.00
41573;BME280;27286;47.870;19.006;2024-02-21T05:40:42;99962.66;;;3.40;100.00
41573;BME280;27286;47.870;19.006;2024-02-21T05:43:08;99950.72;;;3.22;100.00
41573;BME280;27286;47.870;19.006;2024-02-21T05:45:34;99962.72;;;3.23;100.00
41573;BME280;27286;47.870;19.006;2024-02-21T05:48:00;99955.00;;;3.20;100.00
41573;BME280;27286;47.870;19.006;2024-02-21T05:50:25;99955.84;;;3.19;100.00
41573;BME280;27286;47.870;19.006;2024-02-21T05:52:52;99961.81;;;3.31;100.00
41573;BME280;27286;47.870;19.006;2024-02-21T05:55:18;99953.31;;;3.11;100.00
41573;BME280;27286;47.870;19.006;2024-02-21T05:57:43;99967.88;;;3.14;100.00
41573;BME280;27286;47.870;19.006;2024-02-21T06:00:09;99923.31;;;2.99;100.00
41573;BME280;27286;47.870;19.006;2024-02-21T06:02:35;99955.84;;;3.17;100.00
41573;BME280;27286;47.870;19.006;2024-02-21T06:05:00;99958.47;;;3.10;100.00
41573;BME280;27286;47.870;19.006;2024-02-21T06:07:25;99958.47;;;3.07;100.00
41573;BME280;27286;47.870;19.006;2024-02-21T06:09:51;99954.88;;;3.50;100.00
41573;BME280;27286;47.870;19.006;2024-02-21T06:12:16;99954.94;;;3.37;100.00
41573;BME280;27286;47.870;19.006;2024-02-21T06:14:42;99951.50;;;3.42;100.00
41573;BME280;27286;47.870;19.006;2024-02-21T06:17:07;99957.44;;;3.50;100.00
41573;BME280;27286;47.870;19.006;2024-02-21T06:19:32;99944.53;;;3.59;100.00
41573;BME280;27286;47.870;19.006;2024-02-21T06:21:58;99949.66;;;3.66;100.00
41573;BME280;27286;47.870;19.006;2024-02-21T06:24:23;99949.56;;;3.82;100.00
41573;BME280;27286;47.870;19.006;2024-02-21T06:26:49;99947.63;;;4.15;100.00
41573;BME280;27286;47.870;19.006;2024-02-21T06:29:14;99944.78;;;4.55;100.00
41573;BME280;27286;47.870;19.006;2024-02-21T06:31:40;99961.38;;;4.17;100.00
41573;BME280;27286;47.870;19.006;2024-02-21T06:34:05;99962.88;;;4.47;100.00
41573;BME280;27286;47.870;19.006;2024-02-21T06:36:31;99966.03;;;4.79;100.00
41573;BME280;27286;47.870;19.006;2024-02-21T06:38:56;99968.38;;;5.04;100.00
41573;BME280;27286;47.870;19.006;2024-02-21T06:41:22;99982.13;;;5.06;99.09
41573;BME280;27286;47.870;19.006;2024-02-21T06:43:48;99972.50;;;5.19;98.79
41573;BME280;27286;47.870;19.006;2024-02-21T06:46:27;99963.53;;;4.67;100.00
41573;BME280;27286;47.870;19.006;2024-02-21T06:48:54;99981.66;;;4.63;100.00
41573;BME280;27286;47.870;19.006;2024-02-21T06:51:21;99984.41;;;4.41;100.00
41573;BME280;27286;47.870;19.006;2024-02-21T06:53:47;99986.19;;;4.29;100.00
41573;BME280;27286;47.870;19.006;2024-02-21T06:56:12;99974.13;;;4.38;100.00
41573;BME280;27286;47.870;19.006;2024-02-21T06:58:38;99993.63;;;4.68;100.00
41573;BME280;27286;47.870;19.006;2024-02-21T07:01:03;100000.94;;;5.14;100.00
41573;BME280;27286;47.870;19.006;2024-02-21T07:03:28;100006.09;;;5.16;100.00
41573;BME280;27286;47.870;19.006;2024-02-21T07:05:54;99994.97;;;5.10;100.00
41573;BME280;27286;47.870;19.006;2024-02-21T07:08:19;99997.44;;;5.21;100.00
41573;BME280;27286;47.870;19.006;2024-02-21T07:10:44;100000.69;;;5.35;99.69
41573;BME280;27286;47.870;19.006;2024-02-21T07:13:10;99997.84;;;5.60;96.82
41573;BME280;27286;47.870;19.006;2024-02-21T07:15:35;99997.81;;;6.29;90.13
41573;BME280;27286;47.870;19.006;2024-02-21T07:18:02;100012.81;;;6.62;88.64
41573;BME280;27286;47.870;19.006;2024-02-21T07:20:27;100006.22;;;6.96;87.53
41573;BME280;27286;47.870;19.006;2024-02-21T07:22:53;100004.88;;;7.22;83.80
41573;BME280;27286;47.870;19.006;2024-02-21T07:25:18;100004.41;;;7.47;82.47
41573;BME280;27286;47.870;19.006;2024-02-21T07:27:44;100000.09;;;7.88;79.69
41573;BME280;27286;47.870;19.006;2024-02-21T07:30:10;100002.25;;;8.48;77.58
41573;BME280;27286;47.870;19.006;2024-02-21T07:32:36;99999.50;;;9.22;76.64
41573;BME280;27286;47.870;19.006;2024-02-21T07:35:01;99994.09;;;9.91;70.90
41573;BME280;27286;47.870;19.006;2024-02-21T07:37:26;100000.41;;;10.95;67.66
41573;BME280;27286;47.870;19.006;2024-02-21T07:39:52;99989.41;;;11.60;65.17
41573;BME280;27286;47.870;19.006;2024-02-21T07:42:17;99989.53;;;12.03;62.55
41573;BME280;27286;47.870;19.006;2024-02-21T07:44:42;99978.84;;;12.53;60.33
41573;BME280;27286;47.870;19.006;2024-02-21T07:47:08;99984.16;;;12.94;58.51
41573;BME280;27286;47.870;19.006;2024-02-21T07:49:40;99981.19;;;13.63;54.91
41573;BME280;27286;47.870;19.006;2024-02-21T07:52:06;99986.13;;;13.30;56.44
41573;BME280;27286;47.870;19.006;2024-02-21T07:54:31;99960.69;;;15.66;49.23
41573;BME280;27286;47.870;19.006;2024-02-21T07:56:57;99977.16;;;18.22;42.06
41573;BME280;27286;47.870;19.006;2024-02-21T07:59:22;99976.50;;;19.24;39.86
41573;BME280;27286;47.870;19.006;2024-02-21T08:01:47;99972.16;;;21.86;35.05
41573;BME280;27286;47.870;19.006;2024-02-21T08:04:13;99962.28;;;22.43;33.88
41573;BME280;27286;47.870;19.006;2024-02-21T08:06:39;99964.41;;;22.49;33.38
41573;BME280;27286;47.870;19.006;2024-02-21T08:09:05;99946.06;;;23.61;30.35
41573;BME280;27286;47.870;19.006;2024-02-21T08:11:30;99937.97;;;24.22;30.52
41573;BME280;27286;47.870;19.006;2024-02-21T08:13:55;99938.72;;;24.34;30.09
41573;BME280;27286;47.870;19.006;2024-02-21T08:16:21;99936.78;;;24.55;29.55
41573;BME280;27286;47.870;19.006;2024-02-21T08:18:46;99947.03;;;22.56;32.00
41573;BME280;27286;47.870;19.006;2024-02-21T08:21:12;99950.28;;;20.22;34.83
41573;BME280;27286;47.870;19.006;2024-02-21T08:23:37;99954.44;;;20.61;34.27
41573;BME280;27286;47.870;19.006;2024-02-21T08:26:03;99958.22;;;20.22;35.08
41573;BME280;27286;47.870;19.006;2024-02-21T08:28:29;99974.81;;;19.23;36.78
41573;BME280;27286;47.870;19.006;2024-02-21T08:30:54;99964.31;;;21.74;32.65
41573;BME280;27286;47.870;19.006;2024-02-21T08:33:20;99964.19;;;22.84;31.65
41573;BME280;27286;47.870;19.006;2024-02-21T08:35:49;99952.84;;;23.75;29.39
41573;BME280;27286;47.870;19.006;2024-02-21T08:38:15;99961.34;;;23.48;29.01
41573;BME280;27286;47.870;19.006;2024-02-21T08:40:40;99958.91;;;23.05;28.69
41573;BME280;27286;47.870;19.006;2024-02-21T08:43:06;99951.72;;;23.78;29.91
41573;BME280;27286;47.870;19.006;2024-02-21T08:45:31;99957.88;;;20.26;33.97
41573;BME280;27286;47.870;19.006;2024-02-21T08:47:56;99959.00;;;21.29;31.88
41573;BME280;27286;47.870;19.006;2024-02-21T08:50:22;99961.03;;;21.92;31.05
41573;BME280;27286;47.870;19.006;2024-02-21T08:52:47;99961.78;;;20.92;32.45
41573;BME280;27286;47.870;19.006;2024-02-21T08:55:13;99958.56;;;20.17;33.39
41573;BME280;27286;47.870;19.006;2024-02-21T08:57:38;99947.19;;;21.67;31.14
41573;BME280;27286;47.870;19.006;2024-02-21T09:00:05;99950.53;;;22.89;31.18
41573;BME280;27286;47.870;19.006;2024-02-21T09:02:41;99950.78;;;24.57;28.17
41573;BME280;27286;47.870;19.006;2024-02-21T09:05:09;99955.69;;;23.32;28.01
41573;BME280;27286;47.870;19.006;2024-02-21T09:07:35;99950.34;;;23.22;29.03
41573;BME280;27286;47.870;19.006;2024-02-21T09:10:00;99952.13;;;23.73;29.33
41573;BME280;27286;47.870;19.006;2024-02-21T09:12:26;99939.66;;;23.43;28.18
41573;BME280;27286;47.870;19.006;2024-02-21T09:14:52;99939.53;;;24.25;28.38
41573;BME280;27286;47.870;19.006;2024-02-21T09:17:17;99950.19;;;24.35;28.87
41573;BME280;27286;47.870;19.006;2024-02-21T09:19:44;99941.59;;;25.74;26.28
41573;BME280;27286;47.870;19.006;2024-02-21T09:22:09;99949.81;;;23.89;27.11
41573;BME280;27286;47.870;19.006;2024-02-21T09:24:34;99940.94;;;24.68;27.98
41573;BME280;27286;47.870;19.006;2024-02-21T09:27:00;99940.81;;;25.08;27.30
41573;BME280;27286;47.870;19.006;2024-02-21T09:29:25;99944.91;;;24.54;27.59
41573;BME280;27286;47.870;19.006;2024-02-21T09:31:51;99946.25;;;24.19;29.07
41573;BME280;27286;47.870;19.006;2024-02-21T09:34:17;99946.91;;;25.37;27.11
41573;BME280;27286;47.870;19.006;2024-02-21T09:36:44;99945.84;;;25.21;25.57
41573;BME280;27286;47.870;19.006;2024-02-21T09:39:10;99942.63;;;23.50;28.23
41573;BME280;27286;47.870;19.006;2024-02-21T09:41:44;99951.22;;;22.70;28.44
41573;BME280;27286;47.870;19.006;2024-02-21T09:44:12;99946.91;;;24.02;27.56
41573;BME280;27286;47.870;19.006;2024-02-21T09:46:46;99947.53;;;24.35;27.28
41573;BME280;27286;47.870;19.006;2024-02-21T09:49:30;99943.22;;;24.43;26.26
41573;BME280;27286;47.870;19.006;2024-02-21T09:52:02;99945.28;;;24.69;26.81
41573;BME280;27286;47.870;19.006;2024-02-21T09:54:28;99948.47;;;22.60;28.62
41573;BME280;27286;47.870;19.006;2024-02-21T09:56:56;99943.16;;;22.28;29.39
41573;BME280;27286;47.870;19.006;2024-02-21T09:59:23;99946.47;;;21.87;29.25
41573;BME280;27286;47.870;19.006;2024-02-21T10:01:49;99958.00;;;20.12;33.68
41573;BME280;27286;47.870;19.006;2024-02-21T10:04:16;99946.09;;;19.57;34.57
41573;BME280;27286;47.870;19.006;2024-02-21T10:06:41;99959.22;;;17.00;38.21
41573;BME280;27286;47.870;19.006;2024-02-21T10:09:07;99955.16;;;16.65;38.51
41573;BME280;27286;47.870;19.006;2024-02-21T10:11:32;99954.91;;;15.59;41.11
41573;BME280;27286;47.870;19.006;2024-02-21T10:14:07;99957.63;;;13.81;46.09
41573;BME280;27286;47.870;19.006;2024-02-21T10:16:33;99963.56;;;13.47;48.94
41573;BME280;27286;47.870;19.006;2024-02-21T10:18:59;99949.53;;;13.30;50.07
41573;BME280;27286;47.870;19.006;2024-02-21T10:21:24;99953.63;;;12.32;52.48
41573;BME280;27286;47.870;19.006;2024-02-21T10:23:51;99950.94;;;12.33;53.93
41573;BME280;27286;47.870;19.006;2024-02-21T10:26:19;99958.09;;;12.07;53.52
41573;BME280;27286;47.870;19.006;2024-02-21T10:28:45;99947.25;;;11.95;55.55
41573;BME280;27286;47.870;19.006;2024-02-21T10:31:21;99950.41;;;11.08;59.16
41573;BME280;27286;47.870;19.006;2024-02-21T10:33:54;99932.66;;;11.66;57.49
41573;BME280;27286;47.870;19.006;2024-02-21T10:36:20;99939.50;;;11.22;59.75
41573;BME280;27286;47.870;19.006;2024-02-21T10:38:45;99921.78;;;11.32;59.35
41573;BME280;27286;47.870;19.006;2024-02-21T10:41:14;99931.47;;;11.28;60.58
41573;BME280;27286;47.870;19.006;2024-02-21T10:43:40;99922.97;;;12.57;55.80
41573;BME280;27286;47.870;19.006;2024-02-21T10:46:09;99916.28;;;11.63;60.09
41573;BME280;27286;47.870;19.006;2024-02-21T10:48:44;99918.56;;;12.80;56.07
41573;BME280;27286;47.870;19.006;2024-02-21T10:51:18;99924.75;;;12.77;54.73
41573;BME280;27286;47.870;19.006;2024-02-21T10:56:26;99912.84;;;15.27;49.20
41573;BME280;27286;47.870;19.006;2024-02-21T10:58:52;99890.38;;;18.58;41.05
41573;BME280;27286;47.870;19.006;2024-02-21T11:01:18;99879.69;;;19.87;37.14
41573;BME280;27286;47.870;19.006;2024-02-21T11:03:45;99890.22;;;19.50;37.29
41573;BME280;27286;47.870;19.006;2024-02-21T11:06:12;99895.66;;;16.18;42.66
41573;BME280;27286;47.870;19.006;2024-02-21T11:08:39;99893.81;;;14.03;47.36
41573;BME280;27286;47.870;19.006;2024-02-21T11:11:05;99873.94;;;13.44;49.60
41573;BME280;27286;47.870;19.006;2024-02-21T11:13:37;99881.56;;;12.89;52.45
41573;BME280;27286;47.870;19.006;2024-02-21T11:16:09;99882.78;;;12.61;54.60
41573;BME280;27286;47.870;19.006;2024-02-21T11:18:36;99868.69;;;13.05;53.01
41573;BME280;27286;47.870;19.006;2024-02-21T11:21:02;99873.84;;;14.54;51.13
41573;BME280;27286;47.870;19.006;2024-02-21T11:23:30;99865.19;;;17.04;43.27
41573;BME280;27286;47.870;19.006;2024-02-21T11:26:08;99863.28;;;17.49;41.80
41573;BME280;27286;47.870;19.006;2024-02-21T11:28:34;99861.06;;;15.64;45.31
41573;BME280;27286;47.870;19.006;2024-02-21T11:31:08;99859.56;;;18.07;41.51
41573;BME280;27286;47.870;19.006;2024-02-21T11:33:34;99843.09;;;18.30;40.81
41573;BME280;27286;47.870;19.006;2024-02-21T11:36:00;99855.03;;;18.09;39.78
41573;BME280;27286;47.870;19.006;2024-02-21T11:38:26;99859.53;;;16.21;43.09
41573;BME280;27286;47.870;19.006;2024-02-21T11:40:51;99855.53;;;17.74;41.94
41573;BME280;27286;47.870;19.006;2024-02-21T11:43:17;99848.53;;;15.20;45.05
41573;BME280;27286;47.870;19.006;2024-02-21T11:45:42;99844.69;;;14.25;47.07
41573;BME280;27286;47.870;19.006;2024-02-21T11:48:08;99850.09;;;14.22;46.75
41573;BME280;27286;47.870;19.006;2024-02-21T11:50:36;99836.13;;;15.87;43.36
41573;BME280;27286;47.870;19.006;2024-02-21T11:53:02;99826.38;;;18.56;38.17
41573;BME280;27286;47.870;19.006;2024-02-21T11:55:28;99838.56;;;14.94;43.94
41573;BME280;27286;47.870;19.006;2024-02-21T11:57:53;99827.53;;;17.73;39.59
41573;BME280;27286;47.870;19.006;2024-02-21T12:00:19;99830.41;;;16.40;40.71
41573;BME280;27286;47.870;19.006;2024-02-21T12:02:49;99821.50;;;20.35;35.57
41573;BME280;27286;47.870;19.006;2024-02-21T12:05:15;99816.19;;;21.71;32.03
41573;BME280;27286;47.870;19.006;2024-02-21T12:07:41;99823.56;;;18.85;36.12
41573;BME280;27286;47.870;19.006;2024-02-21T12:10:11;99818.34;;;21.66;32.92
41573;BME280;27286;47.870;19.006;2024-02-21T12:12:39;99808.69;;;23.12;30.65
41573;BME280;27286;47.870;19.006;2024-02-21T12:15:05;99804.53;;;22.05;30.49
41573;BME280;27286;47.870;19.006;2024-02-21T12:20:01;99799.50;;;24.53;27.08
41573;BME280;27286;47.870;19.006;2024-02-21T12:22:29;99802.28;;;26.16;25.29
41573;BME280;27286;47.870;19.006;2024-02-21T12:24:57;99795.03;;;24.34;28.07
41573;BME280;27286;47.870;19.006;2024-02-21T12:27:23;99803.50;;;25.68;27.01
41573;BME280;27286;47.870;19.006;2024-02-21T12:29:49;99805.97;;;21.55;31.81
41573;BME280;27286;47.870;19.006;2024-02-21T12:32:14;99808.03;;;19.18;33.02
41573;BME280;27286;47.870;19.006;2024-02-21T12:34:40;99817.94;;;16.44;37.34
41573;BME280;27286;47.870;19.006;2024-02-21T12:37:05;99816.19;;;15.69;39.48
41573;BME280;27286;47.870;19.006;2024-02-21T12:39:31;99816.81;;;14.07;43.06
41573;BME280;27286;47.870;19.006;2024-02-21T12:41:57;99815.44;;;13.64;43.52
41573;BME280;27286;47.870;19.006;2024-02-21T12:44:22;99818.63;;;13.51;44.95
41573;BME280;27286;47.870;19.006;2024-02-21T12:46:49;99809.09;;;13.50;45.69
41573;BME280;27286;47.870;19.006;2024-02-21T12:49:17;99793.16;;;12.59;48.31
41573;BME280;27286;47.870;19.006;2024-02-21T12:51:43;99798.22;;;12.44;48.93
41573;BME280;27286;47.870;19.006;2024-02-21T12:54:11;99802.06;;;12.15;50.95